createdAt,value
2018-06-21T00:00:02.833Z,18.90
2018-06-21T00:02:30.976Z,18.80
2018-06-21T00:04:59.171Z,18.90
2018-06-21T00:09:55.220Z,18.90
2018-06-21T00:12:23.378Z,18.90
2018-06-21T00:14:51.521Z,18.90
2018-06-21T00:17:19.675Z,18.90
2018-06-21T00:19:47.816Z,18.90
2018-06-21T00:22:15.961Z,18.90
2018-06-21T00:27:12.097Z,18.90
2018-06-21T00:29:40.224Z,18.90
2018-06-21T00:32:08.380Z,18.90
2018-06-21T00:34:36.524Z,18.90
2018-06-21T00:37:04.644Z,18.90
2018-06-21T00:39:32.771Z,18.90
2018-06-21T00:42:00.917Z,18.90
2018-06-21T00:44:29.040Z,18.80
2018-06-21T00:46:57.180Z,18.80
2018-06-21T00:49:25.305Z,18.80
2018-06-21T00:51:53.443Z,18.80
2018-06-21T00:54:21.582Z,18.70
2018-06-21T00:56:49.706Z,18.70
2018-06-21T00:59:17.838Z,18.60
2018-06-21T01:01:45.960Z,18.60
2018-06-21T01:04:14.084Z,18.50
2018-06-21T01:06:42.202Z,18.50
2018-06-21T01:09:10.332Z,18.50
2018-06-21T01:11:38.454Z,18.50
2018-06-21T01:14:06.576Z,18.50
2018-06-21T01:16:34.720Z,18.50
2018-06-21T01:19:02.853Z,18.50
2018-06-21T01:21:30.997Z,18.50
2018-06-21T01:23:59.126Z,18.60
2018-06-21T01:26:27.342Z,18.60
2018-06-21T01:28:55.463Z,18.60
2018-06-21T01:31:24.408Z,18.60
2018-06-21T01:33:52.535Z,18.60
2018-06-21T01:36:20.660Z,18.50
2018-06-21T01:38:48.784Z,18.50
2018-06-21T01:41:16.937Z,18.50
2018-06-21T01:43:45.075Z,18.50
2018-06-21T01:46:13.208Z,18.50
2018-06-21T01:48:41.333Z,18.40
2018-06-21T01:51:09.489Z,18.40
2018-06-21T01:53:37.635Z,18.40
2018-06-21T01:56:05.756Z,18.30
2018-06-21T01:58:33.873Z,18.30
2018-06-21T02:01:02.005Z,18.20
2018-06-21T02:03:30.128Z,18.10
2018-06-21T02:05:58.297Z,18.10
2018-06-21T02:08:26.511Z,18.00
2018-06-21T02:10:54.648Z,18.00
2018-06-21T02:13:22.775Z,18.00
2018-06-21T02:15:50.918Z,17.90
2018-06-21T02:18:19.089Z,17.90
2018-06-21T02:20:47.226Z,17.80
2018-06-21T02:23:15.481Z,17.80
2018-06-21T02:25:43.626Z,17.80
2018-06-21T02:28:11.744Z,17.70
2018-06-21T02:30:39.888Z,17.70
2018-06-21T02:33:08.022Z,17.70
2018-06-21T02:35:36.148Z,17.70
2018-06-21T02:40:32.252Z,17.70
2018-06-21T02:43:00.430Z,17.60
2018-06-21T02:45:28.573Z,17.60
2018-06-21T02:47:56.739Z,17.60
2018-06-21T02:50:24.880Z,17.60
2018-06-21T02:52:53.013Z,17.60
2018-06-21T02:55:21.149Z,17.50
2018-06-21T02:57:49.336Z,17.50
2018-06-21T03:00:17.517Z,17.50
2018-06-21T03:02:45.639Z,17.50
2018-06-21T03:05:13.744Z,17.50
2018-06-21T03:07:41.912Z,17.50
2018-06-21T03:10:10.189Z,17.50
2018-06-21T03:12:38.321Z,17.50
2018-06-21T03:15:06.465Z,17.50
2018-06-21T03:17:34.601Z,17.40
2018-06-21T03:20:02.768Z,17.40
2018-06-21T03:22:30.900Z,17.40
2018-06-21T03:24:59.028Z,17.40
2018-06-21T03:27:27.165Z,17.30
2018-06-21T03:29:55.305Z,17.30
2018-06-21T03:32:23.420Z,17.30
2018-06-21T03:37:19.476Z,17.20
2018-06-21T03:39:47.627Z,17.20
2018-06-21T03:42:15.758Z,17.20
2018-06-21T03:44:43.923Z,17.20
2018-06-21T03:47:12.040Z,17.20
2018-06-21T03:49:40.180Z,17.10
2018-06-21T03:52:08.381Z,17.20
2018-06-21T03:54:36.468Z,17.20
2018-06-21T03:57:04.604Z,17.20
2018-06-21T03:59:32.752Z,17.20
2018-06-21T04:02:00.986Z,17.10
2018-06-21T04:04:29.122Z,17.10
2018-06-21T04:06:57.363Z,17.10
2018-06-21T04:11:53.430Z,17.10
2018-06-21T04:14:21.564Z,17.10
2018-06-21T04:16:49.708Z,17.10
2018-06-21T04:19:17.853Z,17.10
2018-06-21T04:21:46.002Z,17.10
2018-06-21T04:24:14.128Z,17.10
2018-06-21T04:26:42.269Z,17.10
2018-06-21T04:29:10.384Z,17.10
2018-06-21T04:31:38.504Z,17.00
2018-06-21T04:34:06.744Z,17.00
2018-06-21T04:36:35.218Z,17.00
2018-06-21T04:39:03.648Z,17.00
2018-06-21T04:41:31.770Z,17.00
2018-06-21T04:43:59.885Z,17.00
2018-06-21T04:46:28.042Z,16.90
2018-06-21T04:48:56.191Z,16.80
2018-06-21T04:51:24.316Z,16.70
2018-06-21T04:53:52.457Z,16.70
2018-06-21T04:56:20.590Z,16.70
2018-06-21T04:58:48.719Z,16.70
2018-06-21T05:01:16.853Z,16.60
2018-06-21T05:03:45.072Z,16.60
2018-06-21T05:06:13.264Z,16.60
2018-06-21T05:08:41.407Z,16.50
2018-06-21T05:11:09.533Z,16.50
2018-06-21T05:13:37.864Z,16.50
2018-06-21T05:16:06.017Z,16.50
2018-06-21T05:18:34.153Z,16.50
2018-06-21T05:23:30.252Z,16.50
2018-06-21T05:25:58.384Z,16.50
2018-06-21T05:28:26.448Z,16.50
2018-06-21T05:30:54.505Z,16.50
2018-06-21T05:33:22.598Z,16.50
2018-06-21T05:35:50.666Z,16.40
2018-06-21T05:38:18.743Z,16.40
2018-06-21T05:40:46.914Z,16.40
2018-06-21T05:43:14.990Z,16.40
2018-06-21T05:45:43.068Z,16.30
2018-06-21T05:48:11.155Z,16.40
2018-06-21T05:50:39.279Z,16.30
2018-06-21T05:53:07.331Z,16.40
2018-06-21T05:55:35.537Z,16.40
2018-06-21T05:58:03.626Z,16.40
2018-06-21T06:00:31.707Z,16.30
2018-06-21T06:02:59.770Z,16.30
2018-06-21T06:05:27.857Z,16.30
2018-06-21T06:07:55.939Z,16.30
2018-06-21T06:10:24.023Z,16.20
2018-06-21T06:12:52.110Z,16.20
2018-06-21T06:15:20.190Z,16.20
2018-06-21T06:17:48.294Z,16.20
2018-06-21T06:20:16.457Z,16.20
2018-06-21T06:22:44.559Z,16.30
2018-06-21T06:25:12.755Z,16.40
2018-06-21T06:27:40.827Z,16.40
2018-06-21T06:30:09.102Z,16.40
2018-06-21T06:32:37.280Z,16.40
2018-06-21T06:35:05.460Z,16.50
2018-06-21T06:37:33.533Z,16.60
2018-06-21T06:40:01.609Z,16.70
2018-06-21T06:42:29.744Z,16.70
2018-06-21T06:44:57.834Z,16.70
2018-06-21T06:47:26.537Z,16.60
2018-06-21T06:49:54.630Z,16.60
2018-06-21T06:52:22.882Z,16.50
2018-06-21T06:54:50.961Z,16.50
2018-06-21T06:57:19.027Z,16.60
2018-06-21T06:59:47.214Z,16.60
2018-06-21T07:02:15.310Z,16.60
2018-06-21T07:04:43.411Z,16.70
2018-06-21T07:07:11.482Z,16.90
2018-06-21T07:09:39.646Z,17.10
2018-06-21T07:12:07.724Z,17.10
2018-06-21T07:14:35.909Z,17.10
2018-06-21T07:17:03.860Z,17.00
2018-06-21T07:19:31.965Z,17.00
2018-06-21T07:22:00.045Z,16.90
2018-06-21T07:24:28.112Z,16.80
2018-06-21T07:26:56.182Z,16.70
2018-06-21T07:29:24.255Z,16.70
2018-06-21T07:31:53.275Z,16.80
2018-06-21T07:34:21.351Z,16.90
2018-06-21T07:36:49.469Z,16.90
2018-06-21T07:39:17.515Z,16.90
2018-06-21T07:41:45.583Z,16.90
2018-06-21T07:44:13.658Z,16.70
2018-06-21T07:46:41.731Z,16.60
2018-06-21T07:49:09.859Z,16.50
2018-06-21T07:51:37.925Z,16.40
2018-06-21T07:54:05.994Z,16.50
2018-06-21T07:56:34.062Z,16.60
2018-06-21T07:59:02.155Z,16.70
2018-06-21T08:01:30.214Z,16.90
2018-06-21T08:03:58.282Z,16.80
2018-06-21T08:06:26.352Z,16.90
2018-06-21T08:08:54.421Z,17.10
2018-06-21T08:11:22.495Z,17.20
2018-06-21T08:13:50.586Z,17.30
2018-06-21T08:16:18.675Z,17.50
2018-06-21T08:18:47.017Z,17.50
2018-06-21T08:21:15.074Z,17.50
2018-06-21T08:23:43.161Z,17.70
2018-06-21T08:26:11.250Z,17.60
2018-06-21T08:28:39.334Z,17.60
2018-06-21T08:31:07.447Z,17.60
2018-06-21T08:33:35.505Z,17.70
2018-06-21T08:36:03.600Z,18.00
2018-06-21T08:38:31.695Z,18.10
2018-06-21T08:40:59.754Z,18.00
2018-06-21T08:43:27.826Z,18.00
2018-06-21T08:45:55.969Z,18.10
2018-06-21T08:48:24.015Z,18.30
2018-06-21T08:50:52.082Z,18.50
2018-06-21T08:53:20.158Z,18.40
2018-06-21T08:55:48.219Z,18.30
2018-06-21T08:58:16.308Z,18.30
2018-06-21T09:00:44.501Z,18.00
2018-06-21T09:03:12.711Z,18.00
2018-06-21T09:05:40.772Z,18.20
2018-06-21T09:08:08.969Z,18.20
2018-06-21T09:10:37.035Z,18.10
2018-06-21T09:13:05.236Z,18.10
2018-06-21T09:15:33.315Z,18.30
2018-06-21T09:18:01.399Z,18.50
2018-06-21T09:20:29.526Z,18.50
2018-06-21T09:22:57.582Z,18.50
2018-06-21T09:25:25.651Z,18.60
2018-06-21T09:27:53.867Z,18.50
2018-06-21T09:30:21.959Z,18.30
2018-06-21T09:32:50.027Z,18.10
2018-06-21T09:35:18.103Z,17.90
2018-06-21T09:37:51.714Z,17.80
2018-06-21T09:40:25.330Z,18.00
2018-06-21T09:42:58.859Z,18.20
2018-06-21T09:45:32.662Z,18.10
2018-06-21T09:48:06.291Z,18.10
2018-06-21T09:50:34.375Z,18.30
2018-06-21T09:53:02.458Z,18.50
2018-06-21T09:55:30.568Z,18.50
2018-06-21T09:57:58.655Z,18.50
2018-06-21T10:00:32.143Z,18.30
2018-06-21T10:03:00.375Z,18.40
2018-06-21T10:05:28.545Z,18.40
2018-06-21T10:07:56.610Z,18.30
2018-06-21T10:10:24.693Z,18.30
2018-06-21T10:12:52.771Z,18.50
2018-06-21T10:15:20.818Z,18.80
2018-06-21T10:17:48.884Z,18.90
2018-06-21T10:20:17.016Z,18.70
2018-06-21T10:22:45.132Z,18.50
2018-06-21T10:25:13.239Z,18.30
2018-06-21T10:27:41.308Z,18.40
2018-06-21T10:30:09.484Z,18.70
2018-06-21T10:32:37.663Z,19.10
2018-06-21T10:35:05.724Z,19.10
2018-06-21T10:37:33.820Z,19.10
2018-06-21T10:40:01.887Z,18.90
2018-06-21T10:42:29.970Z,18.60
2018-06-21T10:44:58.039Z,18.60
2018-06-21T10:47:26.124Z,18.60
2018-06-21T10:49:54.270Z,18.80
2018-06-21T10:52:22.332Z,19.00
2018-06-21T10:54:50.382Z,19.00
2018-06-21T10:57:18.448Z,19.10
2018-06-21T10:59:46.510Z,19.30
2018-06-21T11:02:14.661Z,19.40
2018-06-21T11:04:42.818Z,19.20
2018-06-21T11:07:10.906Z,18.90
2018-06-21T11:09:38.963Z,18.90
2018-06-21T11:12:07.069Z,19.10
2018-06-21T11:14:35.223Z,19.40
2018-06-21T11:17:03.716Z,19.70
2018-06-21T11:19:31.866Z,20.10
2018-06-21T11:21:59.981Z,20.10
2018-06-21T11:24:28.338Z,20.00
2018-06-21T11:26:56.402Z,19.80
2018-06-21T11:29:24.454Z,19.70
2018-06-21T11:31:52.527Z,19.60
2018-06-21T11:34:20.593Z,19.40
2018-06-21T11:36:48.662Z,19.30
2018-06-21T11:39:16.747Z,19.30
2018-06-21T11:41:44.959Z,19.40
2018-06-21T11:44:13.047Z,19.30
2018-06-21T11:46:41.138Z,19.10
2018-06-21T11:49:09.196Z,18.80
2018-06-21T11:51:37.457Z,18.60
2018-06-21T11:54:05.539Z,18.90
2018-06-21T11:56:33.602Z,19.10
2018-06-21T11:59:01.690Z,18.90
2018-06-21T12:01:29.943Z,19.10
2018-06-21T12:03:58.031Z,19.20
2018-06-21T12:06:26.103Z,19.30
2018-06-21T12:08:54.194Z,19.10
2018-06-21T12:11:22.264Z,18.90
2018-06-21T12:13:50.323Z,18.80
2018-06-21T12:16:18.409Z,18.90
2018-06-21T12:18:46.666Z,19.00
2018-06-21T12:21:14.762Z,19.00
2018-06-21T12:23:42.835Z,18.90
2018-06-21T12:26:10.951Z,18.90
2018-06-21T12:28:39.107Z,18.90
2018-06-21T12:31:07.186Z,19.20
2018-06-21T12:33:35.267Z,19.10
2018-06-21T12:36:03.336Z,19.00
2018-06-21T12:38:31.408Z,19.30
2018-06-21T12:40:59.491Z,19.60
2018-06-21T12:43:27.583Z,19.50
2018-06-21T12:45:55.655Z,19.30
2018-06-21T12:48:23.706Z,19.30
2018-06-21T12:50:52.411Z,19.30
2018-06-21T12:53:20.487Z,19.40
2018-06-21T12:55:48.559Z,19.60
2018-06-21T12:58:16.634Z,19.70
2018-06-21T13:00:44.700Z,19.80
2018-06-21T13:03:12.775Z,19.70
2018-06-21T13:08:08.687Z,19.10
2018-06-21T13:10:48.309Z,18.80
2018-06-21T13:13:20.836Z,18.60
2018-06-21T13:15:48.967Z,18.70
2018-06-21T13:18:17.058Z,18.80
2018-06-21T13:20:45.125Z,18.50
2018-06-21T13:23:13.218Z,18.30
2018-06-21T13:28:09.154Z,18.00
2018-06-21T13:30:37.223Z,18.20
2018-06-21T13:33:05.487Z,18.30
2018-06-21T13:35:33.570Z,18.50
2018-06-21T13:38:01.659Z,18.60
2018-06-21T13:40:29.767Z,18.90
2018-06-21T13:42:57.875Z,19.20
2018-06-21T13:45:25.975Z,19.30
2018-06-21T13:47:54.046Z,19.40
2018-06-21T13:50:22.115Z,19.60
2018-06-21T13:52:50.178Z,19.70
2018-06-21T13:55:18.262Z,19.70
2018-06-21T13:57:46.383Z,19.50
2018-06-21T14:00:14.461Z,19.30
2018-06-21T14:02:42.540Z,19.20
2018-06-21T14:05:10.677Z,19.10
2018-06-21T14:07:38.803Z,19.00
2018-06-21T14:10:06.838Z,18.90
2018-06-21T14:12:34.914Z,18.80
2018-06-21T14:15:02.983Z,18.80
2018-06-21T14:17:31.063Z,18.80
2018-06-21T14:19:59.122Z,18.90
2018-06-21T14:22:27.198Z,19.10
2018-06-21T14:24:55.267Z,19.40
2018-06-21T14:27:23.324Z,20.00
2018-06-21T14:29:51.378Z,20.30
2018-06-21T14:32:19.431Z,20.40
2018-06-21T14:34:47.528Z,20.60
2018-06-21T14:37:15.599Z,20.30
2018-06-21T14:39:43.689Z,20.60
2018-06-21T14:42:11.760Z,21.20
2018-06-21T14:44:39.828Z,21.40
2018-06-21T14:47:07.904Z,21.00
2018-06-21T14:49:35.958Z,20.80
2018-06-21T14:52:04.192Z,20.80
2018-06-21T14:54:32.251Z,21.00
2018-06-21T14:57:00.354Z,20.90
2018-06-21T14:59:28.452Z,20.50
2018-06-21T15:01:56.527Z,20.00
2018-06-21T15:04:24.595Z,19.60
2018-06-21T15:06:52.714Z,20.00
2018-06-21T15:09:20.831Z,20.70
2018-06-21T15:11:48.914Z,21.20
2018-06-21T15:14:16.977Z,21.10
2018-06-21T15:16:45.079Z,20.70
2018-06-21T15:19:13.144Z,20.30
2018-06-21T15:21:41.208Z,20.50
2018-06-21T15:24:09.282Z,20.90
2018-06-21T15:26:37.428Z,21.40
2018-06-21T15:29:05.539Z,21.50
2018-06-21T15:31:33.615Z,21.00
2018-06-21T15:34:01.769Z,20.50
2018-06-21T15:36:29.832Z,20.80
2018-06-21T15:38:58.494Z,21.30
2018-06-21T15:41:27.937Z,21.30
2018-06-21T15:43:56.017Z,20.90
2018-06-21T15:46:24.068Z,20.30
2018-06-21T15:48:52.131Z,19.80
2018-06-21T15:51:20.202Z,19.60
2018-06-21T15:53:48.306Z,20.20
2018-06-21T15:56:16.391Z,19.80
2018-06-21T15:58:44.536Z,19.30
2018-06-21T16:01:12.586Z,18.80
2018-06-21T16:03:40.751Z,18.10
2018-06-21T16:06:08.821Z,17.60
2018-06-21T16:08:36.934Z,17.10
2018-06-21T16:11:05.015Z,16.80
2018-06-21T16:13:33.086Z,16.70
2018-06-21T16:16:01.159Z,16.60
2018-06-21T16:18:29.255Z,16.70
2018-06-21T16:20:57.339Z,17.60
2018-06-21T16:23:25.426Z,18.00
2018-06-21T16:25:53.499Z,18.10
2018-06-21T16:30:49.442Z,18.90
2018-06-21T16:33:17.524Z,20.00
2018-06-21T16:35:45.588Z,21.10
2018-06-21T16:38:13.714Z,21.80
2018-06-21T16:40:41.817Z,21.70
2018-06-21T16:43:09.925Z,21.80
2018-06-21T16:45:38.001Z,22.20
2018-06-21T16:48:06.077Z,23.10
2018-06-21T16:50:34.150Z,23.90
2018-06-21T16:53:02.347Z,23.20
2018-06-21T16:55:30.412Z,22.00
2018-06-21T16:57:58.498Z,20.70
2018-06-21T17:00:26.562Z,19.90
2018-06-21T17:02:54.658Z,19.70
2018-06-21T17:07:50.582Z,20.70
2018-06-21T17:10:18.721Z,20.30
2018-06-21T17:12:46.735Z,19.80
2018-06-21T17:15:14.800Z,19.30
2018-06-21T17:17:42.883Z,19.10
2018-06-21T17:20:11.011Z,19.00
2018-06-21T17:22:39.095Z,18.70
2018-06-21T17:25:07.294Z,18.40
2018-06-21T17:27:35.367Z,18.20
2018-06-21T17:30:03.568Z,18.00
2018-06-21T17:32:31.929Z,17.70
2018-06-21T17:35:00.291Z,17.60
2018-06-21T17:37:28.762Z,17.50
2018-06-21T17:39:56.926Z,17.30
2018-06-21T17:42:25.058Z,17.20
2018-06-21T17:44:53.119Z,17.10
2018-06-21T17:47:21.230Z,17.10
2018-06-21T17:49:49.322Z,17.10
2018-06-21T17:52:17.379Z,17.10
2018-06-21T17:54:45.692Z,17.00
2018-06-21T17:57:13.882Z,16.90
2018-06-21T17:59:41.955Z,16.80
2018-06-21T18:02:10.054Z,16.60
2018-06-21T18:04:38.148Z,16.50
2018-06-21T18:07:06.218Z,16.50
2018-06-21T18:09:34.307Z,16.30
2018-06-21T18:12:02.386Z,16.20
2018-06-21T18:14:30.622Z,16.10
2018-06-21T18:16:58.714Z,16.00
2018-06-21T18:19:26.771Z,15.70
2018-06-21T18:21:54.838Z,15.70
2018-06-21T18:24:23.071Z,15.80
2018-06-21T18:26:51.426Z,15.70
2018-06-21T18:29:19.535Z,15.80
2018-06-21T18:31:47.595Z,15.80
2018-06-21T18:34:15.719Z,15.80
2018-06-21T18:36:43.787Z,15.80
2018-06-21T18:39:12.639Z,15.90
2018-06-21T18:41:41.203Z,15.80
2018-06-21T18:44:09.356Z,15.80
2018-06-21T18:46:37.527Z,15.80
2018-06-21T18:49:05.629Z,15.70
2018-06-21T18:51:33.693Z,15.50
2018-06-21T18:54:01.766Z,15.50
2018-06-21T18:56:29.843Z,15.40
2018-06-21T18:58:57.912Z,15.40
2018-06-21T19:01:26.018Z,15.30
2018-06-21T19:06:28.046Z,15.20
2018-06-21T19:09:01.663Z,15.10
2018-06-21T19:12:07.881Z,15.10
2018-06-21T19:19:31.776Z,15.00
2018-06-21T19:21:59.850Z,14.90
2018-06-21T19:31:58.867Z,14.70
2018-06-21T19:34:26.941Z,14.60
2018-06-21T19:44:03.971Z,14.30
2018-06-21T19:46:32.043Z,14.30
2018-06-21T19:49:00.173Z,14.10
2018-06-21T19:51:28.223Z,14.10
2018-06-21T19:57:02.834Z,13.90
2018-06-21T19:59:30.948Z,13.90
2018-06-21T20:05:12.204Z,13.80
2018-06-21T20:07:40.310Z,13.70
2018-06-21T20:10:08.366Z,13.70
2018-06-21T20:12:36.602Z,13.60
2018-06-21T20:15:04.775Z,13.60
2018-06-21T20:17:32.844Z,13.50
2018-06-21T20:20:06.473Z,13.50
2018-06-21T20:22:34.595Z,13.40
2018-06-21T20:25:02.663Z,13.40
2018-06-21T20:27:30.739Z,13.40
2018-06-21T20:29:58.802Z,13.40
2018-06-21T20:32:26.883Z,13.40
2018-06-21T20:34:54.967Z,13.30
2018-06-21T20:37:23.098Z,13.30
2018-06-21T20:39:51.171Z,13.20
2018-06-21T20:42:19.267Z,13.20
2018-06-21T20:44:47.324Z,13.10
2018-06-21T20:47:15.398Z,13.10
2018-06-21T20:49:43.471Z,13.10
2018-06-21T20:52:17.154Z,13.10
2018-06-21T20:54:45.514Z,13.10
2018-06-21T20:57:13.613Z,13.10
2018-06-21T20:59:42.194Z,13.10
2018-06-21T21:02:10.271Z,13.10
2018-06-21T21:04:49.390Z,13.10
2018-06-21T21:07:17.461Z,13.10
2018-06-21T21:09:45.523Z,13.10
2018-06-21T21:12:13.620Z,13.10
2018-06-21T21:14:41.682Z,13.00
2018-06-21T21:19:37.734Z,13.00
2018-06-21T21:22:05.846Z,12.90
2018-06-21T21:24:34.615Z,12.90
2018-06-21T21:27:02.757Z,12.90
2018-06-21T21:29:30.834Z,12.80
2018-06-21T21:34:26.931Z,12.80
2018-06-21T21:36:55.043Z,12.80
2018-06-21T21:39:23.198Z,12.80
2018-06-21T21:41:51.255Z,12.90
2018-06-21T21:44:19.354Z,12.90
2018-06-21T21:46:47.504Z,12.90
2018-06-21T21:49:15.585Z,12.90
2018-06-21T21:51:43.662Z,13.00
2018-06-21T21:54:11.751Z,13.00
2018-06-21T21:59:07.751Z,13.10
2018-06-21T22:01:35.855Z,13.00
2018-06-21T22:04:03.909Z,13.00
2018-06-21T22:06:31.978Z,13.00
2018-06-21T22:09:00.048Z,12.90
2018-06-21T22:11:28.122Z,12.90
2018-06-21T22:14:01.606Z,12.90
2018-06-21T22:16:29.758Z,12.90
2018-06-21T22:18:57.834Z,12.90
2018-06-21T22:21:25.880Z,12.90
2018-06-21T22:23:53.942Z,13.00
2018-06-21T22:26:22.025Z,13.00
2018-06-21T22:28:50.252Z,13.00
2018-06-21T22:31:18.431Z,13.10
2018-06-21T22:33:46.807Z,13.10
2018-06-21T22:36:14.909Z,13.20
2018-06-21T22:38:42.934Z,13.20
2018-06-21T22:41:11.007Z,13.30
2018-06-21T22:43:39.286Z,13.30
2018-06-21T22:46:07.886Z,13.30
2018-06-21T22:48:36.454Z,13.30
2018-06-21T22:51:04.503Z,13.40
2018-06-21T22:53:32.586Z,13.40
2018-06-21T22:56:00.661Z,13.40
2018-06-21T22:58:28.720Z,13.40
2018-06-21T23:00:56.847Z,13.40
2018-06-21T23:03:25.085Z,13.50
2018-06-21T23:05:53.223Z,13.50
2018-06-21T23:08:21.323Z,13.50
2018-06-21T23:10:49.379Z,13.50
2018-06-21T23:13:17.444Z,13.40
2018-06-21T23:15:45.513Z,13.40
2018-06-21T23:18:23.938Z,13.40
2018-06-21T23:20:52.000Z,13.40
2018-06-21T23:23:20.040Z,13.50
2018-06-21T23:25:48.082Z,13.50
2018-06-21T23:28:16.147Z,13.50
2018-06-21T23:30:44.295Z,13.50
2018-06-21T23:33:12.355Z,13.50
2018-06-21T23:35:40.412Z,13.50
2018-06-21T23:38:08.473Z,13.50
2018-06-21T23:40:36.533Z,13.60
2018-06-21T23:43:04.616Z,13.60
2018-06-21T23:45:32.676Z,13.60
2018-06-21T23:48:00.746Z,13.60
2018-06-21T23:50:28.818Z,13.60
2018-06-21T23:55:24.882Z,13.60
2018-06-21T23:57:52.941Z,13.60
